createdAt,value
2023-02-17T00:01:37.667Z,10.60
2023-02-17T00:04:07.378Z,10.70
2023-02-17T00:06:35.965Z,10.70
2023-02-17T00:09:04.448Z,11.10
2023-02-17T00:11:32.833Z,11.70
2023-02-17T00:14:01.312Z,10.40
2023-02-17T00:16:30.315Z,12.30
2023-02-17T00:19:00.429Z,12.10
2023-02-17T00:21:30.179Z,12.60
2023-02-17T00:23:58.955Z,13.00
2023-02-17T00:26:27.543Z,13.30
2023-02-17T00:28:56.348Z,13.00
2023-02-17T00:31:25.402Z,12.80
2023-02-17T00:33:55.946Z,13.90
2023-02-17T00:36:24.876Z,10.10
2023-02-17T00:38:54.551Z,14.60
2023-02-17T00:41:22.984Z,16.50
2023-02-17T00:43:51.425Z,16.20
2023-02-17T00:46:20.027Z,17.10
2023-02-17T00:48:48.762Z,16.40
2023-02-17T00:51:17.496Z,16.00
2023-02-17T00:53:46.327Z,17.20
2023-02-17T00:56:14.970Z,17.50
2023-02-17T00:58:43.771Z,17.20
2023-02-17T01:01:12.448Z,18.80
2023-02-17T01:03:42.547Z,19.50
2023-02-17T01:06:14.953Z,17.00
2023-02-17T01:08:43.333Z,17.30
2023-02-17T01:11:18.139Z,18.40
2023-02-17T01:13:46.760Z,18.70
2023-02-17T01:16:20.728Z,18.90
2023-02-17T01:18:50.165Z,20.40
2023-02-17T01:21:27.392Z,20.90
2023-02-17T01:23:57.204Z,20.50
2023-02-17T01:26:26.699Z,21.20
2023-02-17T01:28:55.265Z,20.40
2023-02-17T01:31:24.398Z,20.50
2023-02-17T01:34:00.120Z,21.70
2023-02-17T01:36:28.707Z,21.40
2023-02-17T01:39:00.668Z,23.90
2023-02-17T01:41:29.052Z,23.70
2023-02-17T01:44:14.341Z,22.50
2023-02-17T01:46:46.434Z,22.80
2023-02-17T01:49:19.788Z,23.60
2023-02-17T01:51:52.570Z,25.20
2023-02-17T01:54:27.514Z,26.90
2023-02-17T01:56:55.886Z,28.00
2023-02-17T01:59:24.265Z,29.70
2023-02-17T02:01:54.814Z,29.40
2023-02-17T02:04:25.642Z,29.90
2023-02-17T02:06:54.530Z,30.10
2023-02-17T02:09:41.377Z,30.80
2023-02-17T02:12:20.992Z,31.20
2023-02-17T02:14:49.473Z,30.90
2023-02-17T02:17:41.350Z,26.00
2023-02-17T02:20:24.952Z,32.10
2023-02-17T02:23:12.269Z,30.50
2023-02-17T02:25:40.547Z,29.10
2023-02-17T02:28:44.355Z,30.60
2023-02-17T02:31:34.304Z,29.50
2023-02-17T02:36:38.995Z,30.60
2023-02-17T02:39:18.548Z,29.00
2023-02-17T02:41:49.109Z,30.40
2023-02-17T02:44:19.384Z,29.10
2023-02-17T02:47:01.802Z,31.50
2023-02-17T02:49:35.918Z,33.00
2023-02-17T02:54:51.210Z,29.40
2023-02-17T02:57:30.553Z,31.60
2023-02-17T03:00:06.405Z,31.80
2023-02-17T03:03:08.681Z,32.70
2023-02-17T03:05:51.602Z,30.90
2023-02-17T03:08:26.909Z,31.80
2023-02-17T03:10:55.736Z,32.20
2023-02-17T03:13:24.221Z,31.80
2023-02-17T03:15:53.314Z,31.90
2023-02-17T03:18:21.818Z,31.20
2023-02-17T03:20:57.635Z,33.60
2023-02-17T03:23:26.861Z,33.60
2023-02-17T03:25:55.544Z,34.40
2023-02-17T03:30:54.041Z,31.00
2023-02-17T03:33:22.523Z,32.40
2023-02-17T03:35:51.109Z,32.60
2023-02-17T03:38:19.489Z,33.90
2023-02-17T03:40:47.869Z,33.80
2023-02-17T03:43:17.864Z,33.40
2023-02-17T03:45:46.402Z,35.40
2023-02-17T03:48:19.163Z,34.80
2023-02-17T03:50:47.639Z,33.30
2023-02-17T03:53:16.529Z,33.40
2023-02-17T03:55:45.423Z,34.60
2023-02-17T03:58:13.802Z,34.90
2023-02-17T04:00:42.400Z,35.00
2023-02-17T04:03:13.121Z,36.00
2023-02-17T04:05:41.604Z,37.20
2023-02-17T04:08:09.984Z,34.40
2023-02-17T04:10:38.401Z,34.20
2023-02-17T04:13:06.844Z,34.60
2023-02-17T04:15:37.102Z,35.00
2023-02-17T04:18:05.451Z,35.50
2023-02-17T04:20:34.034Z,37.00
2023-02-17T04:23:02.768Z,35.20
2023-02-17T04:25:34.302Z,36.00
2023-02-17T04:28:04.192Z,37.80
2023-02-17T04:30:33.735Z,37.50
2023-02-17T04:33:02.805Z,27.80
2023-02-17T04:35:31.998Z,35.20
2023-02-17T04:38:00.690Z,36.50
2023-02-17T04:40:29.578Z,27.60
2023-02-17T04:43:01.952Z,36.30
2023-02-17T04:45:30.944Z,35.60
2023-02-17T04:48:00.363Z,35.30
2023-02-17T04:50:29.140Z,36.70
2023-02-17T04:52:57.518Z,37.50
2023-02-17T04:55:26.513Z,26.90
2023-02-17T04:57:54.895Z,37.50
2023-02-17T05:00:23.377Z,37.00
2023-02-17T05:02:51.763Z,35.60
2023-02-17T05:05:21.468Z,36.70
2023-02-17T05:07:49.848Z,35.90
2023-02-17T05:10:18.437Z,37.60
2023-02-17T05:12:46.711Z,37.60
2023-02-17T05:15:20.927Z,35.60
2023-02-17T05:17:50.228Z,37.70
2023-02-17T05:20:18.815Z,36.20
2023-02-17T05:22:47.297Z,36.50
2023-02-17T05:25:16.086Z,37.20
2023-02-17T05:27:45.797Z,37.30
2023-02-17T05:30:14.416Z,37.50
2023-02-17T05:32:42.867Z,37.60
2023-02-17T05:35:11.657Z,36.60
2023-02-17T05:37:41.161Z,37.20
2023-02-17T05:40:10.446Z,36.70
2023-02-17T05:42:38.755Z,29.50
2023-02-17T05:45:07.594Z,38.80
2023-02-17T05:47:37.351Z,37.50
2023-02-17T05:50:06.666Z,38.40
2023-02-17T05:52:35.033Z,31.40
2023-02-17T05:55:05.074Z,36.00
2023-02-17T06:00:03.821Z,36.90
2023-02-17T06:02:40.479Z,38.20
2023-02-17T06:05:09.138Z,34.90
2023-02-17T06:07:39.343Z,37.40
2023-02-17T06:10:08.859Z,39.30
2023-02-17T06:12:37.438Z,30.10
2023-02-17T06:15:06.597Z,39.10
2023-02-17T06:17:40.962Z,40.80
2023-02-17T06:20:10.165Z,38.90
2023-02-17T06:22:38.650Z,29.70
2023-02-17T06:25:07.427Z,37.90
2023-02-17T06:30:22.264Z,37.40
2023-02-17T06:32:51.010Z,38.90
2023-02-17T06:35:19.381Z,38.70
2023-02-17T06:37:48.371Z,35.70
2023-02-17T06:40:18.204Z,37.90
2023-02-17T06:42:46.576Z,36.90
2023-02-17T06:45:16.070Z,38.50
2023-02-17T06:47:45.893Z,39.80
2023-02-17T06:50:16.320Z,40.70
2023-02-17T06:52:45.919Z,39.40
2023-02-17T06:55:14.304Z,39.20
2023-02-17T06:57:42.678Z,36.90
2023-02-17T07:00:11.775Z,37.10
2023-02-17T07:02:40.890Z,39.30
2023-02-17T07:05:09.468Z,39.50
2023-02-17T07:07:38.767Z,41.10
2023-02-17T07:10:08.236Z,39.60
2023-02-17T07:12:39.210Z,37.70
2023-02-17T07:15:12.049Z,40.30
2023-02-17T07:17:42.028Z,38.80
2023-02-17T07:20:10.950Z,39.50
2023-02-17T07:22:39.796Z,41.80
2023-02-17T07:25:08.610Z,41.40
2023-02-17T07:27:37.480Z,42.10
2023-02-17T07:30:06.811Z,39.10
2023-02-17T07:35:04.877Z,38.60
2023-02-17T07:37:34.812Z,38.90
2023-02-17T07:40:04.509Z,40.80
2023-02-17T07:42:33.187Z,30.20
2023-02-17T07:45:01.666Z,38.40
2023-02-17T07:47:33.014Z,39.60
2023-02-17T07:50:01.397Z,37.10
2023-02-17T07:52:30.083Z,37.90
2023-02-17T07:54:58.670Z,39.10
2023-02-17T07:57:27.012Z,37.80
2023-02-17T07:59:55.330Z,36.70
2023-02-17T08:02:24.012Z,36.90
2023-02-17T08:04:53.836Z,37.70
2023-02-17T08:07:22.309Z,36.50
2023-02-17T08:10:10.655Z,37.20
2023-02-17T08:13:09.985Z,37.30
2023-02-17T08:15:38.444Z,36.20
2023-02-17T08:18:06.934Z,36.70
2023-02-17T08:20:35.641Z,35.40
2023-02-17T08:23:04.102Z,36.10
2023-02-17T08:25:34.126Z,37.80
2023-02-17T08:28:04.972Z,34.50
2023-02-17T08:30:36.065Z,34.90
2023-02-17T08:33:05.462Z,38.00
2023-02-17T08:35:34.195Z,36.90
2023-02-17T08:38:02.714Z,36.70
2023-02-17T08:40:31.494Z,37.10
2023-02-17T08:43:01.178Z,37.70
2023-02-17T08:45:31.108Z,39.20
2023-02-17T08:47:59.819Z,38.80
2023-02-17T08:50:28.158Z,37.50
2023-02-17T08:52:56.707Z,37.90
2023-02-17T08:55:25.342Z,39.00
2023-02-17T08:57:54.332Z,39.40
2023-02-17T09:00:26.907Z,38.80
2023-02-17T09:02:55.383Z,40.20
2023-02-17T09:05:24.926Z,39.70
2023-02-17T09:10:22.671Z,39.70
2023-02-17T09:12:52.509Z,39.00
2023-02-17T09:15:21.081Z,40.20
2023-02-17T09:17:49.486Z,41.50
2023-02-17T09:20:25.070Z,38.90
2023-02-17T09:22:54.602Z,41.80
2023-02-17T09:25:23.373Z,41.80
2023-02-17T09:27:52.089Z,42.50
2023-02-17T09:30:20.852Z,41.50
2023-02-17T09:32:49.370Z,41.20
2023-02-17T09:35:21.324Z,40.50
2023-02-17T09:37:50.276Z,40.10
2023-02-17T09:40:19.932Z,41.40
2023-02-17T09:42:48.516Z,42.20
2023-02-17T09:45:21.607Z,42.80
2023-02-17T09:48:07.693Z,42.50
2023-02-17T09:50:44.387Z,41.70
2023-02-17T09:53:31.966Z,38.20
2023-02-17T09:56:02.438Z,40.10
2023-02-17T09:58:41.155Z,39.70
2023-02-17T10:01:12.527Z,40.10
2023-02-17T10:03:47.028Z,40.70
2023-02-17T10:06:45.821Z,39.30
2023-02-17T10:09:19.936Z,38.90
2023-02-17T10:11:53.920Z,41.80
2023-02-17T10:14:28.026Z,40.90
2023-02-17T10:17:34.576Z,40.10
2023-02-17T10:20:21.184Z,40.70
2023-02-17T10:22:56.586Z,40.50
2023-02-17T10:26:02.779Z,42.20
2023-02-17T10:28:31.542Z,41.30
2023-02-17T10:31:04.289Z,42.40
2023-02-17T10:33:45.025Z,41.20
2023-02-17T10:36:52.223Z,41.80
2023-02-17T10:39:58.863Z,39.90
2023-02-17T10:42:31.952Z,38.20
2023-02-17T10:45:25.559Z,38.90
2023-02-17T10:47:58.307Z,37.40
2023-02-17T10:50:27.000Z,37.30
2023-02-17T10:52:56.705Z,37.40
2023-02-17T10:55:36.658Z,37.10
2023-02-17T10:58:11.384Z,37.50
2023-02-17T11:00:42.342Z,37.30
2023-02-17T11:03:21.080Z,34.00
2023-02-17T11:06:18.617Z,35.30
2023-02-17T11:09:02.261Z,36.00
2023-02-17T11:11:32.681Z,39.70
2023-02-17T11:14:07.200Z,39.10
2023-02-17T11:16:37.356Z,36.90
2023-02-17T11:19:07.258Z,34.60
2023-02-17T11:21:37.680Z,35.40
2023-02-17T11:24:11.394Z,34.40
2023-02-17T11:26:39.853Z,34.20
2023-02-17T11:29:16.330Z,36.60
2023-02-17T11:32:01.515Z,34.50
2023-02-17T11:34:33.260Z,34.80
2023-02-17T11:37:13.760Z,35.80
2023-02-17T11:39:44.179Z,34.50
2023-02-17T11:42:25.228Z,35.60
2023-02-17T11:44:54.836Z,35.60
2023-02-17T11:47:39.305Z,32.20
2023-02-17T11:50:13.830Z,34.90
2023-02-17T11:53:19.797Z,31.40
2023-02-17T11:55:59.627Z,32.50
2023-02-17T11:58:31.185Z,32.30
2023-02-17T12:01:11.645Z,31.20
2023-02-17T12:03:41.150Z,30.60
2023-02-17T12:06:23.250Z,23.20
2023-02-17T12:09:12.424Z,31.40
2023-02-17T12:12:02.915Z,29.10
2023-02-17T12:14:50.341Z,29.40
2023-02-17T12:17:18.638Z,29.80
2023-02-17T12:20:09.641Z,28.40
2023-02-17T12:23:33.512Z,29.80
2023-02-17T12:26:17.252Z,31.20
2023-02-17T12:29:26.593Z,29.20
2023-02-17T12:32:06.915Z,27.90
2023-02-17T12:35:01.653Z,28.80
2023-02-17T12:37:35.362Z,29.70
2023-02-17T12:40:06.604Z,30.30
2023-02-17T12:42:43.990Z,29.30
2023-02-17T12:45:21.609Z,28.60
2023-02-17T12:48:22.943Z,30.00
2023-02-17T12:51:12.936Z,29.20
2023-02-17T12:54:17.668Z,28.70
2023-02-17T12:57:10.626Z,28.30
2023-02-17T12:59:40.969Z,27.10
2023-02-17T13:04:43.948Z,27.30
2023-02-17T13:07:15.197Z,29.60
2023-02-17T13:09:45.728Z,28.90
2023-02-17T13:12:23.426Z,28.10
2023-02-17T13:14:55.120Z,27.60
2023-02-17T13:17:40.772Z,29.20
2023-02-17T13:20:12.232Z,28.80
2023-02-17T13:22:44.030Z,29.50
2023-02-17T13:25:34.524Z,20.30
2023-02-17T13:28:33.054Z,30.70
2023-02-17T13:31:13.305Z,30.60
2023-02-17T13:33:47.437Z,30.80
2023-02-17T13:36:20.838Z,31.30
2023-02-17T13:39:27.836Z,29.50
2023-02-17T13:42:00.398Z,26.60
2023-02-17T13:44:33.989Z,29.70
2023-02-17T13:47:29.618Z,28.60
2023-02-17T13:49:58.009Z,27.10
2023-02-17T13:52:28.122Z,28.50
2023-02-17T13:55:04.266Z,26.50
2023-02-17T13:57:36.455Z,28.90
2023-02-17T14:00:07.296Z,29.30
2023-02-17T14:02:51.755Z,31.00
2023-02-17T14:05:33.553Z,50.20
2023-02-17T14:08:17.497Z,29.30
2023-02-17T14:10:47.314Z,28.70
2023-02-17T14:13:20.819Z,28.80
2023-02-17T14:15:59.898Z,29.90
2023-02-17T14:18:36.930Z,30.70
2023-02-17T14:21:13.158Z,34.00
2023-02-17T14:23:49.265Z,34.90
2023-02-17T14:26:37.711Z,36.10
2023-02-17T14:29:08.458Z,36.10
2023-02-17T14:31:42.087Z,36.70
2023-02-17T14:34:24.670Z,33.50
2023-02-17T14:36:54.183Z,35.80
2023-02-17T14:39:22.661Z,35.80
2023-02-17T14:41:52.479Z,35.30
2023-02-17T14:44:21.681Z,37.50
2023-02-17T14:46:50.399Z,38.00
2023-02-17T14:49:19.467Z,37.20
2023-02-17T14:51:47.850Z,38.70
2023-02-17T14:54:17.221Z,38.60
2023-02-17T14:57:05.414Z,38.80
2023-02-17T14:59:35.222Z,41.50
2023-02-17T15:02:04.012Z,39.50
2023-02-17T15:04:32.831Z,41.60
2023-02-17T15:07:01.287Z,42.00
2023-02-17T15:09:31.193Z,42.50
2023-02-17T15:11:59.502Z,41.90
2023-02-17T15:14:27.867Z,42.10
2023-02-17T15:16:56.867Z,42.00
2023-02-17T15:19:25.653Z,40.20
2023-02-17T15:21:58.033Z,39.00
2023-02-17T15:24:46.177Z,38.80
2023-02-17T15:27:15.502Z,38.70
2023-02-17T15:29:44.473Z,40.00
2023-02-17T15:32:19.277Z,38.80
2023-02-17T15:34:47.686Z,39.40
2023-02-17T15:37:16.065Z,40.20
2023-02-17T15:39:44.550Z,35.50
2023-02-17T15:42:13.751Z,37.20
2023-02-17T15:44:48.935Z,37.60
2023-02-17T15:47:20.663Z,37.40
2023-02-17T15:49:50.259Z,38.30
2023-02-17T15:52:18.691Z,38.60
2023-02-17T15:54:48.567Z,36.70
2023-02-17T15:57:24.211Z,37.40
2023-02-17T15:59:55.357Z,37.50
2023-02-17T16:02:24.561Z,38.10
2023-02-17T16:04:54.379Z,38.80
2023-02-17T16:07:23.270Z,38.30
2023-02-17T16:09:51.750Z,38.30
2023-02-17T16:12:27.206Z,39.20
2023-02-17T16:14:57.645Z,39.70
2023-02-17T16:17:28.169Z,39.60
2023-02-17T16:19:56.645Z,39.00
2023-02-17T16:22:25.441Z,38.70
2023-02-17T16:25:14.817Z,38.10
2023-02-17T16:27:43.951Z,29.60
2023-02-17T16:30:20.005Z,40.00
2023-02-17T16:32:51.322Z,39.90
2023-02-17T16:35:25.000Z,40.10
2023-02-17T16:37:54.743Z,39.90
2023-02-17T16:40:26.076Z,39.60
2023-02-17T16:42:55.303Z,42.00
2023-02-17T16:45:26.080Z,39.10
2023-02-17T16:47:56.729Z,39.50
2023-02-17T16:50:27.919Z,39.80
2023-02-17T16:53:03.261Z,38.90
2023-02-17T16:55:35.146Z,40.00
2023-02-17T16:58:04.402Z,29.80
2023-02-17T17:00:33.423Z,39.90
2023-02-17T17:03:02.414Z,41.50
2023-02-17T17:05:31.717Z,39.80
2023-02-17T17:08:00.113Z,38.90
2023-02-17T17:10:34.006Z,39.40
2023-02-17T17:13:02.489Z,40.10
2023-02-17T17:15:35.273Z,43.60
2023-02-17T17:18:06.010Z,40.40
2023-02-17T17:20:40.802Z,41.80
2023-02-17T17:23:12.602Z,39.00
2023-02-17T17:25:42.944Z,38.80
2023-02-17T17:28:16.436Z,38.50
2023-02-17T17:30:45.133Z,39.80
2023-02-17T17:33:13.516Z,41.00
2023-02-17T17:35:43.632Z,41.10
2023-02-17T17:38:15.817Z,40.10
2023-02-17T17:40:53.676Z,38.60
2023-02-17T17:43:23.216Z,37.20
2023-02-17T17:45:52.046Z,40.40
2023-02-17T17:48:21.753Z,38.70
2023-02-17T17:50:50.610Z,40.90
2023-02-17T17:53:19.500Z,40.50
2023-02-17T17:55:48.394Z,38.90
2023-02-17T17:58:17.417Z,38.50
2023-02-17T18:00:50.696Z,39.20
2023-02-17T18:03:20.604Z,39.60
2023-02-17T18:05:48.988Z,41.00
2023-02-17T18:08:19.006Z,40.10
2023-02-17T18:10:47.593Z,39.90
2023-02-17T18:13:16.803Z,38.50
2023-02-17T18:15:45.461Z,37.70
2023-02-17T18:18:13.863Z,37.20
2023-02-17T18:20:42.796Z,37.30
2023-02-17T18:23:11.245Z,36.70
2023-02-17T18:25:40.443Z,35.90
2023-02-17T18:28:08.824Z,36.80
2023-02-17T18:30:37.774Z,34.50
2023-02-17T18:33:08.140Z,34.10
2023-02-17T18:35:37.054Z,33.00
2023-02-17T18:38:05.518Z,33.60
2023-02-17T18:40:40.636Z,31.80
2023-02-17T18:43:10.058Z,31.40
2023-02-17T18:48:02.003Z,31.60
2023-02-17T18:50:33.357Z,31.70
2023-02-17T18:53:05.205Z,29.30
2023-02-17T18:55:37.362Z,28.70
2023-02-17T18:58:05.772Z,31.10
2023-02-17T19:00:34.260Z,31.70
2023-02-17T19:03:06.323Z,32.20
2023-02-17T19:05:35.936Z,33.80
2023-02-17T19:08:08.919Z,33.70
2023-02-17T19:10:38.121Z,33.30
2023-02-17T19:13:07.014Z,33.10
2023-02-17T19:15:38.194Z,32.00
2023-02-17T19:18:06.769Z,32.10
2023-02-17T19:20:43.478Z,34.50
2023-02-17T19:23:12.516Z,32.50
2023-02-17T19:25:41.106Z,31.60
2023-02-17T19:30:39.919Z,30.80
2023-02-17T19:33:10.752Z,31.00
2023-02-17T19:35:41.830Z,33.50
2023-02-17T19:38:10.590Z,33.40
2023-02-17T19:40:40.511Z,34.50
2023-02-17T19:43:08.763Z,32.90
2023-02-17T19:45:37.579Z,30.40
2023-02-17T19:48:06.062Z,30.10
2023-02-17T19:50:37.413Z,30.20
2023-02-17T19:53:05.904Z,31.60
2023-02-17T19:55:34.280Z,31.40
2023-02-17T19:58:03.892Z,31.30
2023-02-17T20:00:32.374Z,31.50
2023-02-17T20:03:00.903Z,28.20
2023-02-17T20:05:31.502Z,21.00
2023-02-17T20:10:30.006Z,30.30
2023-02-17T20:12:58.582Z,29.00
2023-02-17T20:15:26.962Z,31.50
2023-02-17T20:17:55.549Z,30.20
2023-02-17T20:20:23.890Z,30.00
2023-02-17T20:22:52.210Z,28.80
2023-02-17T20:25:20.692Z,28.50
2023-02-17T20:27:49.098Z,29.30
2023-02-17T20:30:19.670Z,30.70
2023-02-17T20:32:48.404Z,31.30
2023-02-17T20:35:16.787Z,31.50
2023-02-17T20:37:45.161Z,29.50
2023-02-17T20:40:14.164Z,29.30
2023-02-17T20:42:46.430Z,31.90
2023-02-17T20:45:15.636Z,30.80
2023-02-17T20:47:44.014Z,31.80
2023-02-17T20:50:20.384Z,32.50
2023-02-17T20:52:49.073Z,32.00
2023-02-17T20:55:20.018Z,23.80
2023-02-17T20:57:48.593Z,30.90
2023-02-17T21:00:20.459Z,31.90
2023-02-17T21:02:52.560Z,34.10
2023-02-17T21:05:21.836Z,33.20
2023-02-17T21:07:50.341Z,34.00
2023-02-17T21:10:24.279Z,33.80
2023-02-17T21:12:52.920Z,33.40
2023-02-17T21:15:21.506Z,34.00
2023-02-17T21:17:49.962Z,35.10
2023-02-17T21:20:20.142Z,33.70
2023-02-17T21:22:48.700Z,34.70
2023-02-17T21:25:17.806Z,35.10
2023-02-17T21:27:48.632Z,35.00
2023-02-17T21:30:17.370Z,34.90
2023-02-17T21:32:45.800Z,36.10
2023-02-17T21:35:14.287Z,36.70
2023-02-17T21:37:43.584Z,36.30
2023-02-17T21:40:12.685Z,27.00
2023-02-17T21:42:59.495Z,33.80
2023-02-17T21:45:28.337Z,35.60
2023-02-17T21:47:56.875Z,35.20
2023-02-17T21:50:25.560Z,35.70
2023-02-17T21:52:54.048Z,36.90
2023-02-17T21:55:22.526Z,37.60
2023-02-17T21:57:51.010Z,36.50
2023-02-17T22:00:20.516Z,35.70
2023-02-17T22:02:49.002Z,36.50
2023-02-17T22:05:18.609Z,35.80
2023-02-17T22:07:51.394Z,37.40
2023-02-17T22:10:19.776Z,35.80
2023-02-17T22:12:48.361Z,36.10
2023-02-17T22:15:16.742Z,35.00
2023-02-17T22:17:50.758Z,36.20
2023-02-17T22:20:19.650Z,36.40
2023-02-17T22:22:48.031Z,38.30
2023-02-17T22:25:16.514Z,37.50
2023-02-17T22:27:44.827Z,38.30
2023-02-17T22:30:13.594Z,36.10
2023-02-17T22:32:43.526Z,36.90
2023-02-17T22:35:12.194Z,36.60
2023-02-17T22:37:41.699Z,37.50
2023-02-17T22:40:12.027Z,38.40
2023-02-17T22:42:41.841Z,39.10
2023-02-17T22:45:12.169Z,36.70
2023-02-17T22:47:42.193Z,38.70
2023-02-17T22:50:10.838Z,39.20
2023-02-17T22:52:39.260Z,37.60
2023-02-17T22:55:08.156Z,40.50
2023-02-17T22:57:36.535Z,40.30
2023-02-17T23:00:06.789Z,37.90
2023-02-17T23:02:37.093Z,39.70
2023-02-17T23:05:06.117Z,41.40
2023-02-17T23:07:40.518Z,41.00
2023-02-17T23:10:09.867Z,43.40
2023-02-17T23:12:38.196Z,44.30
2023-02-17T23:17:56.771Z,40.60
2023-02-17T23:20:26.495Z,41.30
2023-02-17T23:22:55.175Z,42.90
2023-02-17T23:25:24.069Z,44.70
2023-02-17T23:27:53.884Z,42.50
2023-02-17T23:30:23.456Z,43.30
2023-02-17T23:32:52.289Z,43.90
2023-02-17T23:35:20.667Z,44.10
2023-02-17T23:37:53.248Z,45.70
2023-02-17T23:40:21.632Z,44.40
2023-02-17T23:42:50.527Z,46.80
2023-02-17T23:45:19.115Z,46.80
2023-02-17T23:47:49.645Z,48.00
2023-02-17T23:50:19.085Z,46.00
2023-02-17T23:52:48.661Z,44.60
2023-02-17T23:55:17.147Z,46.20
2023-02-17T23:57:45.523Z,48.60
